Time;durP1;ratioP1;P1;durP2;ratioP2;P2;SDS_P1;SDS_P2;PMS_P1;PMS_P2;Temp;Humidity;BMP_temperature;BMP_pressure;BME280_temperature;BME280_humidity;BME280_pressure;Samples;Min_cycle;Max_cycle;Signal;HPM_P1;HPM_P2
2022/01/24 00:01:26;;;;;;;50.20;10.77;;;5.00;99.90;;;;;;5068095;28;20258;-85
2022/01/24 00:03:57;;;;;;;56.53;12.13;;;4.90;99.90;;;;;;5070151;28;20205;-86
2022/01/24 00:06:24;;;;;;;42.23;9.40;;;4.80;99.90;;;;;;5068864;28;20231;-86
2022/01/24 00:08:51;;;;;;;43.40;9.27;;;4.70;99.90;;;;;;5067846;28;20240;-86
2022/01/24 00:11:22;;;;;;;57.10;11.63;;;4.60;99.90;;;;;;5069830;28;20665;-85
2022/01/24 00:16:47;;;;;;;45.90;10.47;;;4.40;99.90;;;;;;5068546;28;20240;-86
2022/01/24 00:27:31;;;;;;;48.97;10.70;;;4.10;99.90;;;;;;5070312;28;20231;-86
2022/01/24 00:29:58;;;;;;;48.63;10.53;;;4.00;99.90;;;;;;5070334;28;20680;-86
2022/01/24 00:32:25;;;;;;;42.83;9.57;;;4.00;99.90;;;;;;5070144;28;20219;-86
2022/01/24 00:34:53;;;;;;;53.13;11.17;;;3.80;99.90;;;;;;5071506;28;20224;-85
2022/01/24 00:37:20;;;;;;;34.07;8.00;;;3.80;99.90;;;;;;5069617;28;20252;-86
2022/01/24 00:39:47;;;;;;;53.80;11.73;;;3.80;99.90;;;;;;5070098;28;20212;-86
2022/01/24 00:42:25;;;;;;;55.83;11.33;;;;;;;;;;5072951;28;20201;-86
2022/01/24 00:45:05;;;;;;;49.67;10.53;;;3.70;99.90;;;;;;5070787;28;20223;-86
2022/01/24 00:47:47;;;;;;;45.23;10.17;;;3.70;99.90;;;;;;5077658;28;20232;-86
2022/01/24 00:55:41;;;;;;;35.97;8.47;;;3.40;99.90;;;;;;5081189;28;20242;-86
2022/01/24 00:58:08;;;;;;;58.37;12.57;;;3.30;99.90;;;;;;5091650;28;20216;-86
2022/01/24 01:00:35;;;;;;;46.07;9.80;;;3.30;99.90;;;;;;5093113;28;20196;-86
2022/01/24 01:03:03;;;;;;;44.00;9.83;;;3.20;99.90;;;;;;5094045;28;20222;-87
2022/01/24 01:05:45;;;;;;;51.50;11.30;;;3.10;99.90;;;;;;5089830;28;20260;-86
2022/01/24 01:19:08;;;;;;;46.37;10.07;;;3.20;99.90;;;;;;5086352;28;20185;-86
2022/01/24 01:21:37;;;;;;;50.53;10.80;;;3.20;99.90;;;;;;5095599;28;20188;-86
2022/01/24 01:24:04;;;;;;;60.57;12.47;;;3.70;99.90;;;;;;5094838;28;20180;-86
2022/01/24 01:26:35;;;;;;;48.20;10.50;;;3.80;99.90;;;;;;5094839;28;20213;-86
2022/01/24 01:29:07;;;;;;;46.47;10.33;;;4.60;99.90;;;;;;5096438;28;20218;-85
2022/01/24 01:31:43;;;;;;;34.67;8.33;;;4.00;99.90;;;;;;5071979;28;20177;-86
2022/01/24 01:34:24;;;;;;;41.23;9.03;;;4.10;99.90;;;;;;5069910;28;20239;-86
2022/01/24 01:37:26;;;;;;;51.23;10.80;;;4.30;99.90;;;;;;5069088;28;20228;-87
2022/01/24 01:56:16;;;;;;;48.83;10.33;;;4.80;99.90;;;;;;5067266;28;20639;-86
2022/01/24 01:58:43;;;;;;;49.10;10.53;;;4.90;99.90;;;;;;5067887;28;20216;-86
2022/01/24 02:01:10;;;;;;;53.63;11.60;;;6.90;99.90;;;;;;5066894;28;20220;-86
2022/01/24 02:03:37;;;;;;;46.10;10.07;;;5.00;99.90;;;;;;5067264;28;20218;-86
2022/01/24 02:06:04;;;;;;;54.37;11.33;;;;;;;;;;5068568;28;20330;-86
2022/01/24 02:08:32;;;;;;;52.53;11.30;;;5.10;99.90;;;;;;5065807;28;20220;-86
2022/01/24 02:11:01;;;;;;;45.10;9.70;;;5.40;99.90;;;;;;5066376;28;20216;-86
2022/01/24 02:13:30;;;;;;;45.43;10.30;;;5.20;99.90;;;;;;5068117;28;20204;-86
2022/01/24 02:16:06;;;;;;;50.77;10.63;;;5.30;99.90;;;;;;5066873;28;20219;-86
2022/01/24 02:18:39;;;;;;;49.90;11.10;;;5.20;99.90;;;;;;5059932;28;20222;-86
2022/01/24 02:21:23;;;;;;;50.67;10.80;;;5.30;99.90;;;;;;5068339;28;20589;-86
2022/01/24 02:23:52;;;;;;;45.70;9.27;;;;;;;;;;5066465;28;20196;-86
2022/01/24 02:26:22;;;;;;;48.97;10.57;;;5.30;99.90;;;;;;5066576;28;20848;-86
2022/01/24 02:28:59;;;;;;;42.60;9.63;;;5.40;99.90;;;;;;5066593;28;20209;-86
2022/01/24 02:31:44;;;;;;;44.67;10.00;;;5.40;99.90;;;;;;5064454;28;20218;-86
2022/01/24 02:34:30;;;;;;;45.30;10.20;;;5.50;99.90;;;;;;5066429;28;20228;-86
2022/01/24 02:37:00;;;;;;;22.80;5.70;;;5.50;99.90;;;;;;5087573;28;20266;-86
2022/01/24 02:53:14;;;;;;;50.30;10.93;;;5.70;99.90;;;;;;5064443;28;20761;-86
2022/01/24 02:55:42;;;;;;;51.03;10.97;;;5.70;99.90;;;;;;5065554;28;20234;-86
2022/01/24 02:58:09;;;;;;;47.40;10.30;;;5.70;99.90;;;;;;5067279;28;20251;-86
2022/01/24 03:00:38;;;;;;;52.20;11.10;;;5.80;99.90;;;;;;5066656;28;20675;-86
2022/01/24 03:03:06;;;;;;;47.10;11.00;;;5.80;99.90;;;;;;5064022;28;20220;-86
2022/01/24 03:05:33;;;;;;;52.87;11.53;;;5.80;99.90;;;;;;5067163;28;20200;-86
2022/01/24 03:08:01;;;;;;;56.00;11.93;;;;;;;;;;5064861;28;20232;-86
2022/01/24 03:10:34;;;;;;;45.13;9.70;;;5.90;99.90;;;;;;5064899;28;20216;-86
2022/01/24 03:13:18;;;;;;;50.03;10.60;;;5.90;99.90;;;;;;5063900;28;20250;-87
2022/01/24 03:15:45;;;;;;;50.63;10.63;;;;;;;;;;5067027;28;20711;-85
2022/01/24 03:18:12;;;;;;;42.87;9.33;;;6.00;99.90;;;;;;5068336;28;20251;-85
2022/01/24 03:20:39;;;;;;;53.07;11.17;;;5.90;99.90;;;;;;5066826;28;20216;-85
2022/01/24 03:23:07;;;;;;;44.10;9.67;;;5.90;99.90;;;;;;5067710;28;20256;-85
2022/01/24 03:25:34;;;;;;;48.03;10.63;;;5.90;99.90;;;;;;5065785;28;20254;-85
2022/01/24 03:28:03;;;;;;;48.43;9.87;;;5.90;99.90;;;;;;5065193;28;20329;-85
2022/01/24 03:30:32;;;;;;;50.13;10.70;;;5.90;99.90;;;;;;5067451;28;20812;-86
2022/01/24 03:32:59;;;;;;;49.73;10.73;;;5.90;99.90;;;;;;5072691;28;20219;-86
2022/01/24 03:35:26;;;;;;;56.20;11.63;;;5.90;99.90;;;;;;5064341;28;20979;-86
2022/01/24 03:37:53;;;;;;;48.53;10.60;;;5.90;99.90;;;;;;5070296;28;20236;-86
2022/01/24 03:40:20;;;;;;;48.47;10.23;;;7.10;99.90;;;;;;5067496;28;20212;-86
2022/01/24 03:42:47;;;;;;;50.13;10.13;;;6.50;99.90;;;;;;5067397;28;20213;-86
2022/01/24 03:45:15;;;;;;;45.77;9.70;;;5.90;99.90;;;;;;5068525;28;20217;-86
2022/01/24 03:47:56;;;;;;;44.83;9.30;;;5.90;99.90;;;;;;5069432;28;20222;-87
2022/01/24 03:50:23;;;;;;;56.37;11.97;;;5.90;99.90;;;;;;5069830;28;20209;-86
2022/01/24 03:52:51;;;;;;;45.10;9.47;;;5.90;99.90;;;;;;5073301;28;20254;-86
2022/01/24 03:55:17;;;;;;;57.03;11.97;;;5.90;99.90;;;;;;5077463;28;20224;-86
2022/01/24 03:57:44;;;;;;;51.57;10.70;;;6.00;99.90;;;;;;5074772;28;20224;-86
2022/01/24 04:00:12;;;;;;;48.57;10.23;;;6.00;99.90;;;;;;5074646;28;20216;-86
2022/01/24 04:02:44;;;;;;;52.93;10.97;;;5.90;99.90;;;;;;5077255;28;20202;-86
2022/01/24 04:05:11;;;;;;;38.87;8.47;;;6.00;99.90;;;;;;5078812;28;20696;-86
2022/01/24 04:07:38;;;;;;;44.90;9.57;;;6.00;99.90;;;;;;5078085;28;20237;-86
2022/01/24 04:10:07;;;;;;;33.90;7.63;;;6.10;99.90;;;;;;5077653;28;20196;-86
2022/01/24 04:12:37;;;;;;;37.73;8.67;;;6.10;99.90;;;;;;5092447;28;20362;-85
2022/01/24 04:15:24;;;;;;;47.50;9.93;;;6.10;99.90;;;;;;5086584;28;20279;-86
2022/01/24 04:18:10;;;;;;;43.03;9.30;;;6.10;99.90;;;;;;5074563;28;20300;-86
2022/01/24 04:23:22;;;;;;;49.90;10.63;;;6.20;99.90;;;;;;5074548;28;20210;-86
2022/01/24 04:25:49;;;;;;;50.93;11.07;;;6.20;99.90;;;;;;5077578;28;20848;-86
2022/01/24 04:28:23;;;;;;;33.33;7.57;;;6.20;99.90;;;;;;5094918;28;20220;-86
2022/01/24 04:30:50;;;;;;;53.93;11.43;;;6.20;99.90;;;;;;5084492;28;20309;-86
2022/01/24 04:33:18;;;;;;;51.63;10.93;;;6.20;99.90;;;;;;5090870;28;20205;-86
2022/01/24 04:35:45;;;;;;;115.90;22.50;;;6.20;99.90;;;;;;5076124;28;20270;-86
2022/01/24 04:38:12;;;;;;;53.57;11.47;;;6.20;99.90;;;;;;5066388;28;20255;-86
2022/01/24 04:40:40;;;;;;;56.13;11.70;;;6.20;99.90;;;;;;5067695;28;20200;-86
2022/01/24 04:43:27;;;;;;;52.80;11.10;;;6.20;99.90;;;;;;5069426;28;20634;-87
2022/01/24 04:46:06;;;;;;;54.77;11.17;;;6.30;99.90;;;;;;5068885;28;20208;-87
2022/01/24 04:51:33;;;;;;;51.03;10.27;;;6.40;99.90;;;;;;5068242;28;20307;-86
2022/01/24 04:56:46;;;;;;;47.20;9.80;;;6.30;99.90;;;;;;5032575;28;20309;-86
2022/01/24 04:59:13;;;;;;;51.40;10.63;;;6.30;99.90;;;;;;5071818;28;20212;-86
2022/01/24 05:01:40;;;;;;;49.23;9.90;;;6.20;99.90;;;;;;5067530;28;20295;-87
2022/01/24 05:04:09;;;;;;;49.70;10.07;;;6.20;99.90;;;;;;5067452;28;20696;-86
2022/01/24 05:06:35;;;;;;;49.10;10.17;;;6.10;99.90;;;;;;5068547;28;20726;-87
2022/01/24 05:09:04;;;;;;;49.57;10.33;;;;;;;;;;5066511;28;20573;-86
2022/01/24 05:11:38;;;;;;;42.03;8.80;;;6.10;99.90;;;;;;5065999;28;20287;-86
2022/01/24 05:25:06;;;;;;;48.73;10.27;;;6.00;99.90;;;;;;5065639;28;20200;-86
2022/01/24 05:27:33;;;;;;;56.70;11.77;;;6.00;99.90;;;;;;5065480;28;20264;-86
2022/01/24 05:29:59;;;;;;;49.50;10.70;;;5.90;99.90;;;;;;5067994;28;20239;-86
2022/01/24 05:32:26;;;;;;;50.43;10.37;;;5.90;99.90;;;;;;5066334;28;20249;-87
2022/01/24 05:34:54;;;;;;;60.87;12.17;;;6.60;99.90;;;;;;5067651;28;20205;-86
2022/01/24 05:37:22;;;;;;;43.53;9.60;;;5.90;99.90;;;;;;5088983;28;20282;-86
2022/01/24 05:39:49;;;;;;;50.60;10.27;;;5.90;99.90;;;;;;5067117;28;20212;-86
2022/01/24 05:42:21;;;;;;;44.87;9.80;;;6.00;99.90;;;;;;5066146;28;20208;-86
2022/01/24 05:44:48;;;;;;;33.23;7.33;;;6.60;99.90;;;;;;5068331;28;20724;-86
2022/01/24 05:47:15;;;;;;;44.57;9.70;;;5.90;99.90;;;;;;5067391;28;20232;-86
2022/01/24 05:49:42;;;;;;;40.23;8.33;;;5.90;99.90;;;;;;5068343;28;20204;-86
2022/01/24 05:52:11;;;;;;;58.53;12.23;;;5.90;99.90;;;;;;5066936;28;20209;-86
2022/01/24 05:54:38;;;;;;;54.40;10.87;;;5.80;99.90;;;;;;5063063;28;20240;-86
2022/01/24 05:57:06;;;;;;;45.50;9.90;;;5.90;99.90;;;;;;5065671;28;20898;-86
2022/01/24 05:59:33;;;;;;;51.63;10.87;;;5.90;99.90;;;;;;5065602;28;20692;-86
2022/01/24 06:02:05;;;;;;;45.63;9.63;;;5.90;99.90;;;;;;5072126;28;20801;-86
2022/01/24 06:04:33;;;;;;;36.17;8.43;;;6.00;99.90;;;;;;5065896;28;20212;-86
2022/01/24 06:07:00;;;;;;;59.90;12.50;;;6.10;99.90;;;;;;5066760;28;20236;-86
2022/01/24 06:09:29;;;;;;;43.90;9.23;;;6.10;99.90;;;;;;5071236;28;20204;-86
2022/01/24 06:11:56;;;;;;;49.47;10.73;;;6.10;99.90;;;;;;5067180;28;20208;-86
2022/01/24 06:14:23;;;;;;;51.17;11.17;;;6.20;99.90;;;;;;5068698;28;20217;-86
2022/01/24 06:16:49;;;;;;;41.60;9.07;;;6.30;99.90;;;;;;5067324;28;20212;-87
2022/01/24 06:19:16;;;;;;;56.70;12.27;;;6.30;99.90;;;;;;5076469;28;20223;-86
2022/01/24 06:21:44;;;;;;;64.50;13.80;;;6.20;99.90;;;;;;5064918;28;20209;-86
2022/01/24 06:24:11;;;;;;;68.57;14.03;;;6.30;99.90;;;;;;5066312;28;20744;-88
2022/01/24 06:26:43;;;;;;;55.20;12.13;;;6.20;99.90;;;;;;5066608;28;20597;-86
2022/01/24 06:29:10;;;;;;;62.10;13.40;;;6.20;99.90;;;;;;5067520;28;20258;-87
2022/01/24 06:31:37;;;;;;;52.10;11.90;;;6.20;99.90;;;;;;5067076;28;20204;-86
2022/01/24 06:34:04;;;;;;;45.10;10.47;;;6.20;99.90;;;;;;5067520;28;20200;-87
2022/01/24 06:36:31;;;;;;;49.30;11.00;;;6.30;99.90;;;;;;5067161;28;20232;-86
2022/01/24 06:38:59;;;;;;;52.90;11.87;;;6.50;99.90;;;;;;5072008;28;20212;-87
2022/01/24 06:41:31;;;;;;;59.77;13.17;;;6.20;99.90;;;;;;5071928;28;20569;-87
2022/01/24 06:43:59;;;;;;;48.83;10.93;;;6.20;99.90;;;;;;5074320;28;20640;-87
2022/01/24 06:46:26;;;;;;;55.60;11.63;;;6.20;99.90;;;;;;5071977;28;20331;-88
2022/01/24 06:48:53;;;;;;;55.23;11.97;;;6.10;99.90;;;;;;5072603;28;20303;-85
2022/01/24 06:51:21;;;;;;;51.70;11.07;;;6.10;99.90;;;;;;5075084;28;20212;-86
2022/01/24 06:53:48;;;;;;;44.37;9.97;;;;;;;;;;5070080;28;20210;-86
2022/01/24 06:56:16;;;;;;;49.83;10.53;;;;;;;;;;5072523;28;20227;-84
2022/01/24 06:58:43;;;;;;;34.20;7.87;;;6.20;99.90;;;;;;5073696;28;20204;-86
2022/01/24 07:01:12;;;;;;;40.17;8.87;;;;;;;;;;5078853;28;20216;-86
2022/01/24 07:03:39;;;;;;;48.63;10.57;;;6.20;99.90;;;;;;5078730;28;20220;-86
2022/01/24 07:06:06;;;;;;;46.03;10.13;;;6.10;99.90;;;;;;5071454;28;20243;-88
2022/01/24 07:08:33;;;;;;;59.90;12.03;;;6.10;99.90;;;;;;5079320;28;20209;-86
2022/01/24 07:11:00;;;;;;;39.47;9.07;;;;;;;;;;5081502;28;20216;-86
2022/01/24 07:13:27;;;;;;;50.10;10.00;;;6.10;99.90;;;;;;5080118;28;20212;-86
2022/01/24 07:15:59;;;;;;;45.57;9.77;;;6.10;99.90;;;;;;5074602;28;20217;-86
2022/01/24 07:21:12;;;;;;;53.33;11.67;;;6.10;99.90;;;;;;5077445;28;20227;-86
2022/01/24 07:23:40;;;;;;;40.30;8.50;;;6.10;99.90;;;;;;5075847;28;20216;-89
2022/01/24 07:26:07;;;;;;;45.80;9.80;;;6.10;99.90;;;;;;5086693;28;20193;-89
2022/01/24 07:28:34;;;;;;;44.43;9.87;;;6.10;99.90;;;;;;5089693;28;20192;-88
2022/01/24 07:31:01;;;;;;;37.57;8.47;;;6.10;99.90;;;;;;5080884;28;20274;-88
2022/01/24 07:33:29;;;;;;;48.57;10.87;;;6.10;99.90;;;;;;5075024;28;20209;-88
2022/01/24 07:35:56;;;;;;;36.83;8.40;;;6.10;99.90;;;;;;5076057;28;20223;-89
2022/01/24 07:38:23;;;;;;;40.47;8.90;;;6.10;99.90;;;;;;5079199;28;20206;-89
2022/01/24 07:40:54;;;;;;;46.80;9.97;;;6.00;99.90;;;;;;5074674;28;20283;-90
2022/01/24 07:43:21;;;;;;;37.93;8.57;;;;;;;;;;5075481;28;20215;-89
2022/01/24 07:45:49;;;;;;;38.77;9.20;;;;;;;;;;5074050;28;20205;-89
2022/01/24 07:48:18;;;;;;;38.60;8.93;;;6.10;99.90;;;;;;5074166;28;20242;-89
2022/01/24 07:50:47;;;;;;;41.97;9.83;;;;;;;;;;5079041;28;20246;-89
2022/01/24 07:53:15;;;;;;;42.07;9.80;;;6.10;99.90;;;;;;5097091;28;20181;-90
2022/01/24 07:55:43;;;;;;;36.23;8.10;;;6.10;99.90;;;;;;5096464;28;20221;-89
2022/01/24 07:58:13;;;;;;;40.77;9.37;;;6.00;99.90;;;;;;5084357;28;20232;-89
2022/01/24 08:00:40;;;;;;;42.57;9.43;;;;;;;;;;5079243;28;20628;-90
2022/01/24 08:03:08;;;;;;;35.63;8.30;;;;;;;;;;5078276;28;20208;-90
2022/01/24 08:05:37;;;;;;;43.80;9.90;;;;;;;;;;5077491;28;20205;-89
2022/01/24 08:08:06;;;;;;;35.60;7.67;;;6.10;99.90;;;;;;5079026;28;20301;-89
2022/01/24 08:10:34;;;;;;;41.17;9.50;;;;;;;;;;5074175;28;20275;-90
2022/01/24 08:13:01;;;;;;;45.40;9.77;;;6.20;99.90;;;;;;5075811;28;20273;-88
2022/01/24 08:15:28;;;;;;;47.10;10.13;;;6.20;99.90;;;;;;5074470;28;20229;-88
2022/01/24 08:17:55;;;;;;;45.67;9.60;;;6.20;99.90;;;;;;5073063;28;20232;-88
2022/01/24 08:20:23;;;;;;;46.70;10.07;;;6.30;99.90;;;;;;5069225;28;20614;-87
2022/01/24 08:22:50;;;;;;;45.13;9.67;;;6.50;99.90;;;;;;5070057;28;20244;-88
2022/01/24 08:25:19;;;;;;;50.90;11.07;;;6.80;99.90;;;;;;5070081;28;20205;-88
2022/01/24 08:27:47;;;;;;;48.77;10.40;;;6.50;99.90;;;;;;5070320;28;20228;-88
2022/01/24 08:30:17;;;;;;;39.87;8.63;;;6.50;99.90;;;;;;5068821;28;20220;-87
2022/01/24 08:32:44;;;;;;;31.43;7.43;;;6.50;99.90;;;;;;5072702;28;20197;-88
2022/01/24 08:35:11;;;;;;;37.03;8.33;;;;;;;;;;5095709;28;20227;-88
2022/01/24 08:37:38;;;;;;;46.63;10.37;;;6.60;99.90;;;;;;5081847;28;20229;-87
2022/01/24 08:40:07;;;;;;;45.83;10.30;;;6.60;99.90;;;;;;5074228;28;20231;-88
2022/01/24 08:42:56;;;;;;;43.97;9.70;;;6.70;99.90;;;;;;5075069;28;20200;-88
2022/01/24 08:48:21;;;;;;;38.77;9.33;;;6.80;99.90;;;;;;5050187;28;20242;-88
2022/01/24 08:50:52;;;;;;;44.00;10.00;;;6.80;99.90;;;;;;5071274;28;20217;-87
2022/01/24 08:53:20;;;;;;;46.37;10.10;;;6.80;99.90;;;;;;5072133;28;20228;-88
2022/01/24 08:55:48;;;;;;;42.83;10.07;;;6.80;99.90;;;;;;5079003;28;20244;-87
2022/01/24 08:58:18;;;;;;;47.13;10.67;;;6.90;99.90;;;;;;5074252;28;20233;-87
2022/01/24 09:00:47;;;;;;;46.53;10.30;;;7.10;99.90;;;;;;5075278;28;20212;-91
2022/01/24 09:03:15;;;;;;;48.77;11.07;;;;;;;;;;5076393;28;20216;-88
2022/01/24 09:05:42;;;;;;;49.50;11.20;;;;;;;;;;5077515;28;20200;-87
2022/01/24 09:08:11;;;;;;;46.70;10.07;;;7.20;99.90;;;;;;5071907;28;20224;-87
2022/01/24 09:10:40;;;;;;;52.97;11.43;;;7.20;99.90;;;;;;5076821;28;20259;-88
2022/01/24 09:13:09;;;;;;;49.67;10.77;;;7.20;99.90;;;;;;5077259;28;20204;-87
2022/01/24 09:15:38;;;;;;;44.07;10.00;;;;;;;;;;5074895;28;20320;-87
2022/01/24 09:18:05;;;;;;;48.30;10.03;;;7.30;99.90;;;;;;5080365;28;20228;-88
2022/01/24 09:20:34;;;;;;;40.60;9.37;;;;;;;;;;5066688;28;20206;-88
2022/01/24 09:23:02;;;;;;;43.37;9.90;;;7.50;99.90;;;;;;5065099;28;20215;-88
2022/01/24 09:25:29;;;;;;;41.30;8.73;;;7.60;99.90;;;;;;5065628;28;20679;-86
2022/01/24 09:27:57;;;;;;;40.43;9.07;;;7.70;99.90;;;;;;5074051;28;20282;-87
2022/01/24 09:30:26;;;;;;;42.10;9.87;;;;;;;;;;5075387;28;20766;-87
2022/01/24 09:32:54;;;;;;;46.17;10.53;;;7.80;99.90;;;;;;5069808;28;20212;-86
2022/01/24 09:35:22;;;;;;;44.63;10.50;;;;;;;;;;5069742;28;20210;-86
2022/01/24 09:37:49;;;;;;;37.87;8.80;;;7.70;99.90;;;;;;5075381;28;20224;-87
2022/01/24 09:40:19;;;;;;;41.93;10.00;;;7.80;99.90;;;;;;5073093;28;20318;-87
2022/01/24 09:42:47;;;;;;;45.43;10.20;;;7.80;99.90;;;;;;5074148;28;20652;-86
2022/01/24 09:45:15;;;;;;;46.73;10.57;;;8.00;99.90;;;;;;5072536;28;20286;-86
2022/01/24 09:47:46;;;;;;;42.20;9.50;;;8.00;99.90;;;;;;5072275;28;20228;-87
2022/01/24 09:50:18;;;;;;;50.93;11.00;;;;;;;;;;5071580;28;20293;-87
2022/01/24 09:52:46;;;;;;;45.80;10.13;;;8.10;99.90;;;;;;5064892;28;20204;-87
2022/01/24 09:55:15;;;;;;;47.17;10.03;;;8.10;99.90;;;;;;5070824;28;20754;-86
2022/01/24 09:57:49;;;;;;;39.70;8.90;;;8.10;99.90;;;;;;5067752;28;20269;-87
2022/01/24 10:00:22;;;;;;;44.23;9.90;;;8.00;99.90;;;;;;5070558;28;20215;-86
2022/01/24 10:02:50;;;;;;;42.47;9.93;;;8.00;99.90;;;;;;5072443;28;20681;-88
2022/01/24 10:05:21;;;;;;;40.57;9.53;;;8.10;99.90;;;;;;5072986;28;20761;-87
2022/01/24 10:07:53;;;;;;;57.33;12.07;;;8.10;99.90;;;;;;5073565;28;20218;-87
2022/01/24 10:10:29;;;;;;;48.87;10.90;;;8.10;99.90;;;;;;5079100;28;20218;-88
2022/01/24 10:18:40;;;;;;;47.73;10.73;;;8.10;99.90;;;;;;5039392;28;20204;-88
2022/01/24 10:21:19;;;;;;;37.37;8.57;;;;;;;;;;5029243;28;20230;-88
2022/01/24 10:23:52;;;;;;;53.07;10.93;;;;;;;;;;5063576;28;20206;-88
2022/01/24 10:26:27;;;;;;;40.47;8.80;;;8.00;99.90;;;;;;5087605;28;20256;-88
2022/01/24 10:28:56;;;;;;;45.93;10.30;;;;;;;;;;5082491;28;20217;-88
2022/01/24 10:31:28;;;;;;;51.73;11.33;;;8.10;99.90;;;;;;5072882;28;20207;-88
2022/01/24 10:34:03;;;;;;;52.83;11.37;;;8.30;99.90;;;;;;5072545;28;20214;-87
2022/01/24 10:36:41;;;;;;;41.73;9.53;;;8.50;99.90;;;;;;5069941;28;20261;-88
2022/01/24 10:39:28;;;;;;;41.13;9.40;;;8.60;99.90;;;;;;5076096;28;20200;-88
2022/01/24 10:45:18;;;;;;;54.00;11.33;;;8.80;99.90;;;;;;5064071;28;20222;-88
2022/01/24 10:47:50;;;;;;;45.27;10.00;;;8.90;99.90;;;;;;5071414;28;20242;-89
2022/01/24 10:50:24;;;;;;;52.13;11.30;;;8.90;99.90;;;;;;5073154;28;20230;-88
2022/01/24 10:52:53;;;;;;;48.87;10.87;;;8.80;99.90;;;;;;5072148;28;20215;-89
2022/01/24 10:55:24;;;;;;;42.73;10.07;;;8.80;99.90;;;;;;5072412;28;20207;-88
2022/01/24 10:57:57;;;;;;;46.97;11.20;;;8.90;99.90;;;;;;5075936;28;20230;-88
2022/01/24 11:00:27;;;;;;;48.80;10.77;;;8.90;99.90;;;;;;5072390;28;20243;-88
2022/01/24 11:02:56;;;;;;;52.40;11.93;;;9.10;99.90;;;;;;5071315;28;20599;-87
2022/01/24 11:05:25;;;;;;;47.73;10.83;;;9.10;99.90;;;;;;5070510;28;20210;-86
2022/01/24 11:07:57;;;;;;;37.83;9.37;;;9.10;99.90;;;;;;5080689;28;20235;-86
2022/01/24 11:10:26;;;;;;;47.00;10.93;;;9.20;99.90;;;;;;5069030;28;20222;-87
2022/01/24 11:12:53;;;;;;;56.00;12.27;;;9.30;99.90;;;;;;5070758;28;20208;-87
2022/01/24 11:15:21;;;;;;;50.50;11.63;;;9.30;99.90;;;;;;5069721;28;20210;-87
2022/01/24 11:17:49;;;;;;;45.13;10.37;;;9.10;99.90;;;;;;5069166;28;20738;-87
2022/01/24 11:20:18;;;;;;;35.47;8.53;;;9.50;99.90;;;;;;5068111;28;20212;-87
2022/01/24 11:22:54;;;;;;;37.10;8.97;;;9.50;99.90;;;;;;5070330;28;20212;-87
2022/01/24 11:25:22;;;;;;;37.27;9.10;;;;;;;;;;5075200;28;20595;-87
2022/01/24 11:27:49;;;;;;;43.30;10.00;;;9.50;99.90;;;;;;5073927;28;20233;-87
2022/01/24 11:30:22;;;;;;;47.63;10.67;;;9.40;99.90;;;;;;5073834;28;20220;-87
2022/01/24 11:32:54;;;;;;;34.00;8.43;;;9.30;99.90;;;;;;5084655;28;20265;-86
2022/01/24 11:35:34;;;;;;;42.73;9.93;;;9.30;99.90;;;;;;5079992;28;20200;-86
2022/01/24 11:38:02;;;;;;;43.13;10.53;;;9.30;99.90;;;;;;5090356;28;20229;-86
2022/01/24 11:40:45;;;;;;;43.63;10.20;;;9.40;99.90;;;;;;5087132;28;20965;-86
2022/01/24 11:43:27;;;;;;;47.67;10.80;;;9.40;99.90;;;;;;5067422;28;20232;-86
2022/01/24 11:46:02;;;;;;;45.70;10.63;;;9.50;99.90;;;;;;5066696;28;20226;-86
2022/01/24 11:48:32;;;;;;;49.03;10.47;;;;;;;;;;5070767;28;20672;-86
2022/01/24 11:51:05;;;;;;;46.33;10.67;;;10.10;99.90;;;;;;5077125;28;20212;-86
2022/01/24 11:53:34;;;;;;;37.93;8.77;;;10.50;99.90;;;;;;5073425;28;20208;-87
2022/01/24 11:56:28;;;;;;;49.53;11.17;;;10.80;99.90;;;;;;5075158;28;20209;-86
2022/01/24 11:59:18;;;;;;;42.00;9.63;;;11.00;99.90;;;;;;5059740;28;20244;-87
2022/01/24 12:01:51;;;;;;;41.00;9.53;;;11.20;99.90;;;;;;5064568;28;20371;-86
2022/01/24 12:04:50;;;;;;;36.20;8.80;;;11.60;99.90;;;;;;5081175;28;20208;-85
2022/01/24 12:07:18;;;;;;;49.50;10.97;;;11.60;99.90;;;;;;5074348;28;20714;-87
2022/01/24 12:09:46;;;;;;;42.07;9.20;;;11.50;99.90;;;;;;5074255;28;20559;-87
2022/01/24 12:12:47;;;;;;;50.37;11.77;;;11.40;99.90;;;;;;5075862;28;20205;-87
2022/01/24 12:15:47;;;;;;;47.23;10.80;;;11.30;99.90;;;;;;5037287;28;20224;-87
2022/01/24 12:18:22;;;;;;;54.63;11.53;;;11.10;99.90;;;;;;5067601;28;20286;-88
2022/01/24 12:20:51;;;;;;;34.20;8.37;;;11.00;99.90;;;;;;5071685;28;20262;-85
2022/01/24 12:23:38;;;;;;;42.07;9.93;;;10.90;99.90;;;;;;5068085;28;20204;-88
2022/01/24 12:26:09;;;;;;;50.40;10.67;;;10.80;99.90;;;;;;5070254;28;20284;-87
2022/01/24 12:28:49;;;;;;;40.17;9.30;;;10.70;99.90;;;;;;5067696;28;20878;-87
2022/01/24 12:31:23;;;;;;;43.00;10.00;;;10.40;99.90;;;;;;5068880;28;20208;-87
2022/01/24 12:34:18;;;;;;;38.90;8.97;;;10.10;99.90;;;;;;5065798;28;20253;-88
2022/01/24 12:37:00;;;;;;;45.20;10.17;;;10.00;99.90;;;;;;5058103;28;20240;-87
2022/01/24 12:39:36;;;;;;;41.23;9.83;;;9.90;99.90;;;;;;5068801;28;20282;-86
2022/01/24 12:42:10;;;;;;;48.83;11.00;;;10.10;99.90;;;;;;5066662;28;20710;-89
2022/01/24 12:47:28;;;;;;;40.00;9.63;;;10.10;99.90;;;;;;5071845;28;20244;-87
2022/01/24 12:49:56;;;;;;;42.20;9.70;;;10.50;99.90;;;;;;5068379;28;20226;-88
2022/01/24 12:52:25;;;;;;;41.37;9.53;;;10.20;99.90;;;;;;5068329;28;20287;-87
2022/01/24 12:54:58;;;;;;;50.27;11.50;;;10.20;99.90;;;;;;5069720;28;20208;-87
2022/01/24 12:57:29;;;;;;;38.50;9.53;;;10.10;99.90;;;;;;5070585;28;20228;-87
2022/01/24 13:00:02;;;;;;;39.20;9.20;;;9.80;99.90;;;;;;5069646;28;20290;-88
2022/01/24 13:02:36;;;;;;;47.57;11.37;;;9.90;99.90;;;;;;5072675;28;20216;-87
2022/01/24 13:05:07;;;;;;;49.63;11.17;;;9.90;99.90;;;;;;5074224;28;20204;-87
2022/01/24 13:07:37;;;;;;;36.40;8.90;;;9.90;99.90;;;;;;5072620;28;20285;-87
2022/01/24 13:10:12;;;;;;;44.37;10.57;;;9.70;99.90;;;;;;5069498;28;20230;-87
2022/01/24 13:12:41;;;;;;;55.50;12.30;;;9.70;99.90;;;;;;5072403;28;20293;-87
2022/01/24 13:15:24;;;;;;;49.43;11.37;;;;;;;;;;5074129;28;20234;-86
2022/01/24 13:23:31;;;;;;;48.47;10.50;;;9.00;99.90;;;;;;5079206;28;20218;-87
2022/01/24 13:26:00;;;;;;;44.40;10.53;;;;;;;;;;5071981;28;20280;-87
2022/01/24 13:28:27;;;;;;;39.20;9.43;;;8.90;99.90;;;;;;5068642;28;20235;-87
2022/01/24 13:31:01;;;;;;;31.53;7.97;;;8.80;99.90;;;;;;5083786;28;20187;-87
2022/01/24 13:33:30;;;;;;;46.67;10.30;;;8.80;99.90;;;;;;5074450;28;20214;-87
2022/01/24 13:35:59;;;;;;;46.40;10.37;;;8.80;99.90;;;;;;5070924;28;20792;-88
2022/01/24 13:38:29;;;;;;;46.00;10.70;;;8.60;99.90;;;;;;5070956;28;20683;-87
2022/01/24 13:41:02;;;;;;;29.33;7.60;;;8.50;99.90;;;;;;5088089;28;20219;-87
2022/01/24 13:43:32;;;;;;;41.63;10.20;;;8.40;99.90;;;;;;5089021;28;20206;-87
2022/01/24 13:46:02;;;;;;;38.27;8.40;;;8.50;99.90;;;;;;5068215;28;20845;-87
2022/01/24 13:48:29;;;;;;;37.57;8.63;;;8.50;99.90;;;;;;5071240;28;20207;-87
2022/01/24 13:50:59;;;;;;;45.70;10.70;;;8.60;99.90;;;;;;5070569;28;20211;-87
2022/01/24 13:53:32;;;;;;;53.53;11.67;;;8.70;99.90;;;;;;5073297;28;20239;-87
2022/01/24 13:56:00;;;;;;;47.17;10.70;;;8.80;99.90;;;;;;5070413;28;20299;-88
2022/01/24 13:58:28;;;;;;;45.00;10.70;;;8.70;99.90;;;;;;5071515;28;20235;-87
2022/01/24 14:01:01;;;;;;;59.13;12.70;;;8.70;99.90;;;;;;5071566;28;20586;-88
2022/01/24 14:03:28;;;;;;;41.13;9.00;;;8.50;99.90;;;;;;5071263;28;20217;-87
2022/01/24 14:06:15;;;;;;;45.30;10.13;;;8.10;99.90;;;;;;5072183;28;20218;-87
2022/01/24 14:08:43;;;;;;;47.67;10.70;;;8.10;99.90;;;;;;5066504;28;20204;-87
2022/01/24 14:11:14;;;;;;;57.37;12.13;;;8.40;99.90;;;;;;5073055;28;20213;-87
2022/01/24 14:13:49;;;;;;;45.47;10.80;;;8.10;99.90;;;;;;5071336;28;20222;-88
2022/01/24 14:16:37;;;;;;;57.17;12.63;;;8.20;99.90;;;;;;5067968;28;20280;-87
2022/01/24 14:19:05;;;;;;;50.03;11.23;;;8.20;99.90;;;;;;5069241;28;20743;-88
2022/01/24 14:21:31;;;;;;;52.13;11.30;;;8.20;99.90;;;;;;5068879;28;20212;-87
2022/01/24 14:24:00;;;;;;;51.07;11.60;;;;;;;;;;5069937;28;20201;-87
2022/01/24 14:26:33;;;;;;;44.80;10.03;;;8.00;99.90;;;;;;5071005;28;20229;-86
2022/01/24 14:29:06;;;;;;;50.53;10.63;;;;;;;;;;5070126;28;20192;-86
2022/01/24 14:31:35;;;;;;;43.47;9.47;;;7.80;99.90;;;;;;5070524;28;20201;-86
2022/01/24 14:34:04;;;;;;;51.83;11.00;;;7.60;99.90;;;;;;5068632;28;20547;-86
2022/01/24 14:36:31;;;;;;;49.00;10.90;;;7.50;99.90;;;;;;5059851;28;20236;-86
2022/01/24 14:39:06;;;;;;;50.23;11.57;;;7.40;99.90;;;;;;5075233;28;20208;-87
2022/01/24 14:41:37;;;;;;;36.83;8.37;;;7.40;99.90;;;;;;5084642;28;20328;-87
2022/01/24 14:46:54;;;;;;;53.97;10.73;;;7.30;99.90;;;;;;5066047;28;20239;-86
2022/01/24 14:49:25;;;;;;;57.33;12.03;;;7.30;99.90;;;;;;5063233;28;20647;-87
2022/01/24 14:51:54;;;;;;;50.40;10.23;;;7.20;99.90;;;;;;5070009;28;20216;-86